Chang Dao, China
Current Conditions -  °F | °C
As of 10:30 PM on Friday 19 Dec 2014 (Local Time) from ZYTL Reporting Station
Clear Clear  
Wind Chill: 18°   Ceiling: Unl
Heat Index: 28°   Visibility: 6mi
Dew Point: 12°   Wind: 13mph
Humidity: 51%   Direction: 350°N
Pressure: 30.21"   Gusts: NA
Location:  37.93°N, 120.72°E
Report Text: ZYTL 191430Z 35006MPS CAVOK M02/M11 Q1023 NOSIG
Loading
Personal Weather Stations






























Interactive Weather Map New forecast layout! Learn more

10-Day Weather Forecast

Advertisements
Track Severe Weather on mobile